sensor_id;sensor_type;location;lat;lon;timestamp;P1;durP1;ratioP1;P2;durP2;ratioP2
12912;SDS011;6524;51.368;11.984;2023-08-12T04:04:41;6.57;;;5.20;;
12912;SDS011;6524;51.368;11.984;2023-08-12T04:09:43;8.57;;;5.28;;
12912;SDS011;6524;51.368;11.984;2023-08-12T04:14:44;7.15;;;5.38;;
12912;SDS011;6524;51.368;11.984;2023-08-12T04:19:44;8.93;;;5.80;;
12912;SDS011;6524;51.368;11.984;2023-08-12T04:24:44;6.68;;;4.90;;
12912;SDS011;6524;51.368;11.984;2023-08-12T04:29:45;6.25;;;5.57;;
12912;SDS011;6524;51.368;11.984;2023-08-12T04:34:45;7.38;;;5.13;;
12912;SDS011;6524;51.368;11.984;2023-08-12T04:39:46;5.68;;;5.07;;
12912;SDS011;6524;51.368;11.984;2023-08-12T04:44:47;6.75;;;5.70;;
12912;SDS011;6524;51.368;11.984;2023-08-12T04:49:47;5.82;;;5.22;;
12912;SDS011;6524;51.368;11.984;2023-08-12T04:54:52;6.35;;;5.18;;
12912;SDS011;6524;51.368;11.984;2023-08-12T04:59:53;9.10;;;5.45;;
12912;SDS011;6524;51.368;11.984;2023-08-12T05:04:54;6.88;;;5.70;;
12912;SDS011;6524;51.368;11.984;2023-08-12T05:09:54;7.57;;;5.72;;
12912;SDS011;6524;51.368;11.984;2023-08-12T05:14:54;6.33;;;5.50;;
12912;SDS011;6524;51.368;11.984;2023-08-12T05:19:55;6.15;;;5.22;;
12912;SDS011;6524;51.368;11.984;2023-08-12T05:24:55;7.47;;;5.82;;
12912;SDS011;6524;51.368;11.984;2023-08-12T05:29:55;9.35;;;5.60;;
12912;SDS011;6524;51.368;11.984;2023-08-12T05:34:56;6.45;;;5.72;;
12912;SDS011;6524;51.368;11.984;2023-08-12T05:39:56;7.57;;;5.40;;
12912;SDS011;6524;51.368;11.984;2023-08-12T05:44:56;6.07;;;5.25;;
12912;SDS011;6524;51.368;11.984;2023-08-12T05:49:57;5.72;;;5.00;;
12912;SDS011;6524;51.368;11.984;2023-08-12T05:54:57;8.60;;;5.30;;
12912;SDS011;6524;51.368;11.984;2023-08-12T05:59:57;5.70;;;5.20;;
12912;SDS011;6524;51.368;11.984;2023-08-12T06:04:58;6.25;;;5.60;;
12912;SDS011;6524;51.368;11.984;2023-08-12T06:09:58;8.27;;;6.45;;
12912;SDS011;6524;51.368;11.984;2023-08-12T06:14:58;5.63;;;4.97;;
12912;SDS011;6524;51.368;11.984;2023-08-12T06:20:01;5.70;;;5.20;;
12912;SDS011;6524;51.368;11.984;2023-08-12T06:25:02;6.00;;;5.18;;
12912;SDS011;6524;51.368;11.984;2023-08-12T06:30:02;6.65;;;5.20;;
12912;SDS011;6524;51.368;11.984;2023-08-12T06:35:03;5.40;;;4.90;;
12912;SDS011;6524;51.368;11.984;2023-08-12T06:40:04;5.30;;;4.80;;
12912;SDS011;6524;51.368;11.984;2023-08-12T06:45:05;5.78;;;5.18;;
12912;SDS011;6524;51.368;11.984;2023-08-12T06:50:06;5.43;;;4.97;;
12912;SDS011;6524;51.368;11.984;2023-08-12T06:55:09;5.63;;;4.50;;
12912;SDS011;6524;51.368;11.984;2023-08-12T07:00:09;5.20;;;4.70;;
12912;SDS011;6524;51.368;11.984;2023-08-12T07:05:10;5.20;;;4.68;;
12912;SDS011;6524;51.368;11.984;2023-08-12T07:10:10;5.33;;;4.80;;
12912;SDS011;6524;51.368;11.984;2023-08-12T07:15:10;5.80;;;4.75;;
12912;SDS011;6524;51.368;11.984;2023-08-12T07:20:11;5.75;;;4.60;;
12912;SDS011;6524;51.368;11.984;2023-08-12T07:25:12;8.60;;;5.10;;
12912;SDS011;6524;51.368;11.984;2023-08-12T07:30:12;5.95;;;5.00;;
12912;SDS011;6524;51.368;11.984;2023-08-12T07:35:12;4.97;;;4.50;;
12912;SDS011;6524;51.368;11.984;2023-08-12T07:40:13;4.97;;;4.57;;
12912;SDS011;6524;51.368;11.984;2023-08-12T07:45:13;5.15;;;4.57;;
12912;SDS011;6524;51.368;11.984;2023-08-12T07:50:13;5.28;;;4.47;;
12912;SDS011;6524;51.368;11.984;2023-08-12T07:55:14;5.53;;;4.90;;
12912;SDS011;6524;51.368;11.984;2023-08-12T08:00:15;5.40;;;4.70;;
12912;SDS011;6524;51.368;11.984;2023-08-12T08:05:16;6.03;;;5.15;;
12912;SDS011;6524;51.368;11.984;2023-08-12T08:10:16;6.38;;;5.32;;
12912;SDS011;6524;51.368;11.984;2023-08-12T08:15:16;5.80;;;5.07;;
12912;SDS011;6524;51.368;11.984;2023-08-12T08:20:17;5.43;;;4.90;;
12912;SDS011;6524;51.368;11.984;2023-08-12T08:25:17;5.37;;;4.87;;
12912;SDS011;6524;51.368;11.984;2023-08-12T08:30:17;8.47;;;5.10;;
12912;SDS011;6524;51.368;11.984;2023-08-12T08:35:18;7.00;;;4.90;;
12912;SDS011;6524;51.368;11.984;2023-08-12T08:40:18;5.65;;;5.03;;
12912;SDS011;6524;51.368;11.984;2023-08-12T08:45:19;5.30;;;4.80;;
12912;SDS011;6524;51.368;11.984;2023-08-12T08:50:20;5.55;;;4.80;;
12912;SDS011;6524;51.368;11.984;2023-08-12T08:55:22;5.70;;;5.20;;
12912;SDS011;6524;51.368;11.984;2023-08-12T09:00:22;5.10;;;4.60;;
12912;SDS011;6524;51.368;11.984;2023-08-12T09:05:23;5.57;;;5.03;;
12912;SDS011;6524;51.368;11.984;2023-08-12T09:10:24;6.10;;;5.45;;
12912;SDS011;6524;51.368;11.984;2023-08-12T09:15:26;6.10;;;5.55;;
12912;SDS011;6524;51.368;11.984;2023-08-12T09:20:27;5.30;;;4.90;;
12912;SDS011;6524;51.368;11.984;2023-08-12T09:25:27;5.07;;;4.68;;
12912;SDS011;6524;51.368;11.984;2023-08-12T09:30:29;5.28;;;4.78;;
12912;SDS011;6524;51.368;11.984;2023-08-12T09:40:35;5.35;;;4.80;;
12912;SDS011;6524;51.368;11.984;2023-08-12T09:45:35;5.43;;;4.82;;
12912;SDS011;6524;51.368;11.984;2023-08-12T09:50:36;5.22;;;4.75;;
12912;SDS011;6524;51.368;11.984;2023-08-12T09:55:36;5.07;;;4.68;;
12912;SDS011;6524;51.368;11.984;2023-08-12T10:00:39;5.28;;;4.85;;
12912;SDS011;6524;51.368;11.984;2023-08-12T10:05:41;6.03;;;4.60;;
12912;SDS011;6524;51.368;11.984;2023-08-12T10:10:42;5.05;;;4.65;;
12912;SDS011;6524;51.368;11.984;2023-08-12T10:15:43;5.18;;;4.70;;
12912;SDS011;6524;51.368;11.984;2023-08-12T10:20:44;5.13;;;4.65;;
12912;SDS011;6524;51.368;11.984;2023-08-12T10:25:44;5.53;;;5.03;;
12912;SDS011;6524;51.368;11.984;2023-08-12T10:30:45;4.72;;;4.32;;
12912;SDS011;6524;51.368;11.984;2023-08-12T10:35:46;4.65;;;4.25;;
12912;SDS011;6524;51.368;11.984;2023-08-12T10:40:48;4.72;;;4.28;;
12912;SDS011;6524;51.368;11.984;2023-08-12T10:45:49;5.50;;;4.10;;
12912;SDS011;6524;51.368;11.984;2023-08-12T10:50:53;4.75;;;4.35;;
12912;SDS011;6524;51.368;11.984;2023-08-12T10:55:55;4.47;;;4.07;;
12912;SDS011;6524;51.368;11.984;2023-08-12T11:00:57;4.95;;;4.10;;
12912;SDS011;6524;51.368;11.984;2023-08-12T11:05:59;5.88;;;4.70;;
12912;SDS011;6524;51.368;11.984;2023-08-12T11:11:00;5.10;;;4.60;;
12912;SDS011;6524;51.368;11.984;2023-08-12T11:16:06;4.40;;;4.00;;
12912;SDS011;6524;51.368;11.984;2023-08-12T11:21:07;5.05;;;4.15;;
12912;SDS011;6524;51.368;11.984;2023-08-12T11:26:08;4.57;;;4.28;;
12912;SDS011;6524;51.368;11.984;2023-08-12T11:31:09;3.85;;;3.55;;
12912;SDS011;6524;51.368;11.984;2023-08-12T11:36:10;3.75;;;3.45;;
12912;SDS011;6524;51.368;11.984;2023-08-12T11:41:10;3.95;;;3.63;;
12912;SDS011;6524;51.368;11.984;2023-08-12T11:46:15;3.80;;;3.50;;
12912;SDS011;6524;51.368;11.984;2023-08-12T11:51:16;3.25;;;2.95;;
12912;SDS011;6524;51.368;11.984;2023-08-12T11:56:16;3.97;;;3.53;;
12912;SDS011;6524;51.368;11.984;2023-08-12T12:01:17;4.25;;;3.50;;
12912;SDS011;6524;51.368;11.984;2023-08-12T12:06:17;4.03;;;3.73;;
12912;SDS011;6524;51.368;11.984;2023-08-12T12:11:32;4.00;;;3.65;;
12912;SDS011;6524;51.368;11.984;2023-08-12T12:21:45;4.40;;;4.00;;
12912;SDS011;6524;51.368;11.984;2023-08-12T12:26:47;4.45;;;4.05;;
12912;SDS011;6524;51.368;11.984;2023-08-12T12:31:48;3.78;;;3.40;;
12912;SDS011;6524;51.368;11.984;2023-08-12T12:36:48;4.63;;;4.00;;
12912;SDS011;6524;51.368;11.984;2023-08-12T12:41:49;4.30;;;3.90;;
12912;SDS011;6524;51.368;11.984;2023-08-12T12:46:49;4.35;;;4.05;;
12912;SDS011;6524;51.368;11.984;2023-08-12T12:51:49;4.50;;;4.20;;
12912;SDS011;6524;51.368;11.984;2023-08-12T12:56:50;4.15;;;3.85;;
12912;SDS011;6524;51.368;11.984;2023-08-12T13:01:50;4.15;;;3.80;;
12912;SDS011;6524;51.368;11.984;2023-08-12T13:06:51;4.10;;;3.80;;
12912;SDS011;6524;51.368;11.984;2023-08-12T13:11:51;4.38;;;3.97;;
12912;SDS011;6524;51.368;11.984;2023-08-12T13:16:52;4.63;;;4.20;;
12912;SDS011;6524;51.368;11.984;2023-08-12T13:21:52;5.22;;;3.47;;
12912;SDS011;6524;51.368;11.984;2023-08-12T13:26:53;4.10;;;3.70;;
12912;SDS011;6524;51.368;11.984;2023-08-12T13:31:54;4.28;;;3.88;;
12912;SDS011;6524;51.368;11.984;2023-08-12T13:36:54;4.33;;;3.97;;
12912;SDS011;6524;51.368;11.984;2023-08-12T13:41:55;5.27;;;3.93;;
12912;SDS011;6524;51.368;11.984;2023-08-12T13:46:56;5.57;;;3.90;;
12912;SDS011;6524;51.368;11.984;2023-08-12T13:51:57;6.53;;;4.00;;
12912;SDS011;6524;51.368;11.984;2023-08-12T13:56:59;5.88;;;3.90;;
12912;SDS011;6524;51.368;11.984;2023-08-12T14:01:59;4.53;;;4.20;;
12912;SDS011;6524;51.368;11.984;2023-08-12T14:06:59;4.10;;;3.80;;
12912;SDS011;6524;51.368;11.984;2023-08-12T14:12:00;4.10;;;3.80;;
12912;SDS011;6524;51.368;11.984;2023-08-12T14:17:00;4.50;;;4.10;;
12912;SDS011;6524;51.368;11.984;2023-08-12T14:22:01;4.70;;;4.30;;
12912;SDS011;6524;51.368;11.984;2023-08-12T14:27:01;4.90;;;4.40;;
12912;SDS011;6524;51.368;11.984;2023-08-12T14:32:02;4.20;;;3.88;;
12912;SDS011;6524;51.368;11.984;2023-08-12T14:37:02;4.32;;;3.92;;
12912;SDS011;6524;51.368;11.984;2023-08-12T14:42:03;4.38;;;3.97;;
12912;SDS011;6524;51.368;11.984;2023-08-12T14:47:04;4.40;;;4.10;;
12912;SDS011;6524;51.368;11.984;2023-08-12T14:52:05;4.53;;;3.72;;
12912;SDS011;6524;51.368;11.984;2023-08-12T14:57:05;5.00;;;4.60;;
12912;SDS011;6524;51.368;11.984;2023-08-12T15:02:06;4.90;;;4.50;;
12912;SDS011;6524;51.368;11.984;2023-08-12T15:07:07;5.15;;;4.20;;
12912;SDS011;6524;51.368;11.984;2023-08-12T15:12:07;4.77;;;4.37;;
12912;SDS011;6524;51.368;11.984;2023-08-12T15:17:07;4.20;;;3.83;;
12912;SDS011;6524;51.368;11.984;2023-08-12T15:22:08;3.90;;;3.30;;
12912;SDS011;6524;51.368;11.984;2023-08-12T15:27:08;5.82;;;4.03;;
12912;SDS011;6524;51.368;11.984;2023-08-12T15:32:09;4.07;;;3.70;;
12912;SDS011;6524;51.368;11.984;2023-08-12T15:37:09;5.57;;;4.60;;
12912;SDS011;6524;51.368;11.984;2023-08-12T15:42:09;5.18;;;4.28;;
12912;SDS011;6524;51.368;11.984;2023-08-12T15:47:10;5.28;;;4.60;;
12912;SDS011;6524;51.368;11.984;2023-08-12T15:52:10;6.90;;;4.43;;
12912;SDS011;6524;51.368;11.984;2023-08-12T15:57:10;5.40;;;4.57;;
12912;SDS011;6524;51.368;11.984;2023-08-12T16:02:11;5.43;;;4.30;;
12912;SDS011;6524;51.368;11.984;2023-08-12T16:07:11;6.80;;;4.55;;
12912;SDS011;6524;51.368;11.984;2023-08-12T16:12:12;4.80;;;4.40;;
12912;SDS011;6524;51.368;11.984;2023-08-12T16:17:12;5.70;;;5.10;;
12912;SDS011;6524;51.368;11.984;2023-08-12T16:22:13;5.70;;;5.13;;
12912;SDS011;6524;51.368;11.984;2023-08-12T16:27:13;5.70;;;5.07;;
12912;SDS011;6524;51.368;11.984;2023-08-12T16:32:13;5.15;;;4.60;;
12912;SDS011;6524;51.368;11.984;2023-08-12T16:37:14;5.80;;;4.72;;
12912;SDS011;6524;51.368;11.984;2023-08-12T16:42:14;5.45;;;4.63;;
12912;SDS011;6524;51.368;11.984;2023-08-12T16:47:15;6.50;;;4.85;;
12912;SDS011;6524;51.368;11.984;2023-08-12T16:52:15;7.85;;;4.47;;
12912;SDS011;6524;51.368;11.984;2023-08-12T16:57:16;4.70;;;4.30;;
12912;SDS011;6524;51.368;11.984;2023-08-12T17:02:16;4.70;;;4.30;;
12912;SDS011;6524;51.368;11.984;2023-08-12T17:07:17;4.88;;;4.43;;
12912;SDS011;6524;51.368;11.984;2023-08-12T17:12:17;5.03;;;4.50;;
12912;SDS011;6524;51.368;11.984;2023-08-12T17:17:21;4.83;;;4.37;;
12912;SDS011;6524;51.368;11.984;2023-08-12T17:22:21;5.13;;;4.70;;
12912;SDS011;6524;51.368;11.984;2023-08-12T17:27:22;5.68;;;5.18;;
12912;SDS011;6524;51.368;11.984;2023-08-12T17:32:23;5.70;;;5.05;;
12912;SDS011;6524;51.368;11.984;2023-08-12T17:37:24;5.78;;;5.28;;
12912;SDS011;6524;51.368;11.984;2023-08-12T17:42:24;6.00;;;5.40;;
12912;SDS011;6524;51.368;11.984;2023-08-12T17:47:24;5.28;;;4.80;;
12912;SDS011;6524;51.368;11.984;2023-08-12T17:52:25;5.82;;;5.10;;
12912;SDS011;6524;51.368;11.984;2023-08-12T17:57:25;6.47;;;5.72;;
12912;SDS011;6524;51.368;11.984;2023-08-12T18:02:26;5.68;;;5.07;;
12912;SDS011;6524;51.368;11.984;2023-08-12T18:07:27;5.50;;;4.78;;
12912;SDS011;6524;51.368;11.984;2023-08-12T18:12:27;5.20;;;4.70;;
12912;SDS011;6524;51.368;11.984;2023-08-12T18:17:27;5.50;;;5.00;;
12912;SDS011;6524;51.368;11.984;2023-08-12T18:22:28;5.40;;;4.82;;
12912;SDS011;6524;51.368;11.984;2023-08-12T18:27:28;4.85;;;4.45;;
12912;SDS011;6524;51.368;11.984;2023-08-12T18:32:29;4.60;;;4.22;;
12912;SDS011;6524;51.368;11.984;2023-08-12T18:37:29;4.60;;;4.05;;
12912;SDS011;6524;51.368;11.984;2023-08-12T18:42:30;5.50;;;4.30;;
12912;SDS011;6524;51.368;11.984;2023-08-12T18:47:30;4.85;;;3.90;;
12912;SDS011;6524;51.368;11.984;2023-08-12T18:52:30;5.37;;;4.30;;
12912;SDS011;6524;51.368;11.984;2023-08-12T18:57:31;4.60;;;4.20;;
12912;SDS011;6524;51.368;11.984;2023-08-12T19:02:31;5.40;;;4.30;;
12912;SDS011;6524;51.368;11.984;2023-08-12T19:07:32;3.83;;;3.53;;
12912;SDS011;6524;51.368;11.984;2023-08-12T19:12:32;4.05;;;3.70;;
12912;SDS011;6524;51.368;11.984;2023-08-12T19:17:32;3.70;;;3.40;;
12912;SDS011;6524;51.368;11.984;2023-08-12T19:22:32;5.07;;;3.88;;
12912;SDS011;6524;51.368;11.984;2023-08-12T19:27:33;4.13;;;3.72;;
12912;SDS011;6524;51.368;11.984;2023-08-12T19:32:45;4.20;;;3.80;;
12912;SDS011;6524;51.368;11.984;2023-08-12T19:37:49;4.82;;;3.55;;
12912;SDS011;6524;51.368;11.984;2023-08-12T19:42:51;4.55;;;3.83;;
12912;SDS011;6524;51.368;11.984;2023-08-12T19:47:52;3.55;;;3.25;;
12912;SDS011;6524;51.368;11.984;2023-08-12T19:52:52;4.72;;;3.97;;
12912;SDS011;6524;51.368;11.984;2023-08-12T19:57:53;4.73;;;3.87;;
12912;SDS011;6524;51.368;11.984;2023-08-12T20:02:53;3.75;;;3.45;;
12912;SDS011;6524;51.368;11.984;2023-08-12T20:07:53;3.90;;;3.50;;
12912;SDS011;6524;51.368;11.984;2023-08-12T20:12:54;4.65;;;3.40;;
12912;SDS011;6524;51.368;11.984;2023-08-12T20:17:54;3.70;;;3.40;;
12912;SDS011;6524;51.368;11.984;2023-08-12T20:22:54;3.80;;;3.33;;
12912;SDS011;6524;51.368;11.984;2023-08-12T20:27:55;3.92;;;3.42;;
12912;SDS011;6524;51.368;11.984;2023-08-12T20:32:56;4.53;;;3.70;;
12912;SDS011;6524;51.368;11.984;2023-08-12T20:37:56;5.43;;;4.30;;
12912;SDS011;6524;51.368;11.984;2023-08-12T20:42:57;5.32;;;3.90;;
12912;SDS011;6524;51.368;11.984;2023-08-12T20:47:58;4.80;;;4.40;;
12912;SDS011;6524;51.368;11.984;2023-08-12T20:52:58;5.82;;;5.07;;
12912;SDS011;6524;51.368;11.984;2023-08-12T20:57:58;4.85;;;4.45;;
12912;SDS011;6524;51.368;11.984;2023-08-12T21:02:59;4.85;;;4.00;;
12912;SDS011;6524;51.368;11.984;2023-08-12T21:07:59;4.77;;;4.00;;
12912;SDS011;6524;51.368;11.984;2023-08-12T21:12:59;4.55;;;4.00;;
12912;SDS011;6524;51.368;11.984;2023-08-12T21:18:00;4.03;;;3.40;;
12912;SDS011;6524;51.368;11.984;2023-08-12T21:23:03;3.60;;;3.25;;
12912;SDS011;6524;51.368;11.984;2023-08-12T21:28:05;3.83;;;3.15;;
12912;SDS011;6524;51.368;11.984;2023-08-12T21:33:05;3.30;;;3.00;;
12912;SDS011;6524;51.368;11.984;2023-08-12T21:38:06;4.05;;;3.35;;
12912;SDS011;6524;51.368;11.984;2023-08-12T21:43:09;4.95;;;4.45;;
12912;SDS011;6524;51.368;11.984;2023-08-12T21:48:17;3.60;;;3.30;;
12912;SDS011;6524;51.368;11.984;2023-08-12T21:53:20;3.97;;;3.10;;
12912;SDS011;6524;51.368;11.984;2023-08-12T21:58:23;3.78;;;3.10;;
12912;SDS011;6524;51.368;11.984;2023-08-12T22:03:27;3.47;;;3.17;;
12912;SDS011;6524;51.368;11.984;2023-08-12T22:08:28;3.85;;;3.03;;
12912;SDS011;6524;51.368;11.984;2023-08-12T22:13:28;4.03;;;3.30;;
12912;SDS011;6524;51.368;11.984;2023-08-12T22:18:45;3.47;;;3.00;;
12912;SDS011;6524;51.368;11.984;2023-08-12T22:23:47;3.40;;;3.10;;
12912;SDS011;6524;51.368;11.984;2023-08-12T22:28:47;3.87;;;2.93;;
12912;SDS011;6524;51.368;11.984;2023-08-12T22:33:47;3.53;;;2.92;;
12912;SDS011;6524;51.368;11.984;2023-08-12T22:38:49;3.30;;;3.00;;
12912;SDS011;6524;51.368;11.984;2023-08-12T22:43:49;9.32;;;7.88;;
12912;SDS011;6524;51.368;11.984;2023-08-12T22:48:50;3.87;;;2.60;;
12912;SDS011;6524;51.368;11.984;2023-08-12T22:53:50;2.80;;;2.45;;
12912;SDS011;6524;51.368;11.984;2023-08-12T22:58:51;2.92;;;2.60;;
12912;SDS011;6524;51.368;11.984;2023-08-12T23:03:51;2.35;;;2.15;;
12912;SDS011;6524;51.368;11.984;2023-08-12T23:08:52;2.20;;;2.03;;
12912;SDS011;6524;51.368;11.984;2023-08-12T23:13:56;2.58;;;2.38;;
12912;SDS011;6524;51.368;11.984;2023-08-12T23:18:57;3.05;;;2.28;;
12912;SDS011;6524;51.368;11.984;2023-08-12T23:23:57;3.67;;;2.72;;
12912;SDS011;6524;51.368;11.984;2023-08-12T23:28:58;3.03;;;2.13;;
12912;SDS011;6524;51.368;11.984;2023-08-12T23:33:58;3.15;;;2.33;;
12912;SDS011;6524;51.368;11.984;2023-08-12T23:38:59;2.25;;;2.05;;
12912;SDS011;6524;51.368;11.984;2023-08-12T23:43:59;3.63;;;2.80;;
12912;SDS011;6524;51.368;11.984;2023-08-12T23:49:00;2.30;;;2.08;;
12912;SDS011;6524;51.368;11.984;2023-08-12T23:54:00;2.10;;;2.00;;
12912;SDS011;6524;51.368;11.984;2023-08-12T23:59:01;2.95;;;2.15;;
